sensor_id;sensor_type;location;lat;lon;timestamp;temperature;humidity
8945;DHT22;4507;40.232;29.132;2022-07-21T00:02:08;21.20;62.70
8945;DHT22;4507;40.232;29.132;2022-07-21T00:04:37;21.10;62.90
8945;DHT22;4507;40.232;29.132;2022-07-21T00:07:06;21.10;63.20
8945;DHT22;4507;40.232;29.132;2022-07-21T00:09:34;21.10;63.40
8945;DHT22;4507;40.232;29.132;2022-07-21T00:12:04;21.00;63.50
8945;DHT22;4507;40.232;29.132;2022-07-21T00:14:33;21.00;63.50
8945;DHT22;4507;40.232;29.132;2022-07-21T00:17:03;21.00;63.60
8945;DHT22;4507;40.232;29.132;2022-07-21T00:19:32;21.00;63.60
8945;DHT22;4507;40.232;29.132;2022-07-21T00:22:01;21.00;63.70
8945;DHT22;4507;40.232;29.132;2022-07-21T00:24:29;21.00;63.80
8945;DHT22;4507;40.232;29.132;2022-07-21T00:26:58;21.00;63.70
8945;DHT22;4507;40.232;29.132;2022-07-21T00:29:27;20.80;63.60
8945;DHT22;4507;40.232;29.132;2022-07-21T00:31:55;20.90;63.70
8945;DHT22;4507;40.232;29.132;2022-07-21T00:34:25;20.80;63.70
8945;DHT22;4507;40.232;29.132;2022-07-21T00:36:54;20.80;63.90
8945;DHT22;4507;40.232;29.132;2022-07-21T00:39:23;20.70;63.90
8945;DHT22;4507;40.232;29.132;2022-07-21T00:41:51;20.70;64.00
8945;DHT22;4507;40.232;29.132;2022-07-21T00:44:20;20.60;64.00
8945;DHT22;4507;40.232;29.132;2022-07-21T00:46:49;20.60;64.10
8945;DHT22;4507;40.232;29.132;2022-07-21T00:49:18;20.40;64.00
8945;DHT22;4507;40.232;29.132;2022-07-21T00:51:49;20.60;64.50
8945;DHT22;4507;40.232;29.132;2022-07-21T00:54:18;20.50;64.50
8945;DHT22;4507;40.232;29.132;2022-07-21T00:56:46;20.40;64.50
8945;DHT22;4507;40.232;29.132;2022-07-21T00:59:15;20.40;64.60
8945;DHT22;4507;40.232;29.132;2022-07-21T01:01:44;20.40;64.80
8945;DHT22;4507;40.232;29.132;2022-07-21T01:04:13;20.40;64.90
8945;DHT22;4507;40.232;29.132;2022-07-21T01:06:42;20.30;64.90
8945;DHT22;4507;40.232;29.132;2022-07-21T01:09:12;20.30;64.90
8945;DHT22;4507;40.232;29.132;2022-07-21T01:11:40;20.20;64.90
8945;DHT22;4507;40.232;29.132;2022-07-21T01:14:10;20.20;65.00
8945;DHT22;4507;40.232;29.132;2022-07-21T01:16:38;20.20;65.00
8945;DHT22;4507;40.232;29.132;2022-07-21T01:19:07;20.10;65.10
8945;DHT22;4507;40.232;29.132;2022-07-21T01:21:38;20.10;65.40
8945;DHT22;4507;40.232;29.132;2022-07-21T01:24:07;20.00;65.50
8945;DHT22;4507;40.232;29.132;2022-07-21T01:26:40;20.00;65.70
8945;DHT22;4507;40.232;29.132;2022-07-21T01:29:09;19.90;65.80
8945;DHT22;4507;40.232;29.132;2022-07-21T01:31:39;19.90;66.00
8945;DHT22;4507;40.232;29.132;2022-07-21T01:34:09;20.00;66.20
8945;DHT22;4507;40.232;29.132;2022-07-21T01:36:39;19.80;66.10
8945;DHT22;4507;40.232;29.132;2022-07-21T01:39:08;19.70;66.40
8945;DHT22;4507;40.232;29.132;2022-07-21T01:41:53;19.70;66.50
8945;DHT22;4507;40.232;29.132;2022-07-21T01:44:22;19.60;66.70
8945;DHT22;4507;40.232;29.132;2022-07-21T01:46:51;19.60;66.90
8945;DHT22;4507;40.232;29.132;2022-07-21T01:49:20;19.50;67.00
8945;DHT22;4507;40.232;29.132;2022-07-21T01:51:50;19.50;67.10
8945;DHT22;4507;40.232;29.132;2022-07-21T01:54:19;19.40;67.20
8945;DHT22;4507;40.232;29.132;2022-07-21T01:56:50;19.40;67.50
8945;DHT22;4507;40.232;29.132;2022-07-21T01:59:19;19.50;67.60
8945;DHT22;4507;40.232;29.132;2022-07-21T02:01:47;19.30;67.60
8945;DHT22;4507;40.232;29.132;2022-07-21T02:04:16;19.30;67.90
8945;DHT22;4507;40.232;29.132;2022-07-21T02:06:46;19.30;68.00
8945;DHT22;4507;40.232;29.132;2022-07-21T02:09:16;19.40;68.20
8945;DHT22;4507;40.232;29.132;2022-07-21T02:11:45;19.30;68.20
8945;DHT22;4507;40.232;29.132;2022-07-21T02:14:13;19.30;68.30
8945;DHT22;4507;40.232;29.132;2022-07-21T02:16:42;19.30;68.50
8945;DHT22;4507;40.232;29.132;2022-07-21T02:19:11;19.30;68.70
8945;DHT22;4507;40.232;29.132;2022-07-21T02:21:39;19.10;68.70
8945;DHT22;4507;40.232;29.132;2022-07-21T02:24:08;19.30;69.00
8945;DHT22;4507;40.232;29.132;2022-07-21T02:26:38;19.20;68.80
8945;DHT22;4507;40.232;29.132;2022-07-21T02:29:07;19.20;68.70
8945;DHT22;4507;40.232;29.132;2022-07-21T02:31:36;19.20;68.70
8945;DHT22;4507;40.232;29.132;2022-07-21T02:34:04;19.20;68.50
8945;DHT22;4507;40.232;29.132;2022-07-21T02:36:33;19.20;68.50
8945;DHT22;4507;40.232;29.132;2022-07-21T02:39:02;19.20;68.40
8945;DHT22;4507;40.232;29.132;2022-07-21T02:41:31;19.30;68.50
8945;DHT22;4507;40.232;29.132;2022-07-21T02:44:01;19.30;68.40
8945;DHT22;4507;40.232;29.132;2022-07-21T02:46:30;19.20;68.10
8945;DHT22;4507;40.232;29.132;2022-07-21T02:48:59;19.20;68.00
8945;DHT22;4507;40.232;29.132;2022-07-21T02:51:27;19.40;68.10
8945;DHT22;4507;40.232;29.132;2022-07-21T02:53:56;19.20;67.90
8945;DHT22;4507;40.232;29.132;2022-07-21T02:56:25;19.20;67.90
8945;DHT22;4507;40.232;29.132;2022-07-21T02:58:53;19.20;67.90
8945;DHT22;4507;40.232;29.132;2022-07-21T03:01:24;19.20;67.90
8945;DHT22;4507;40.232;29.132;2022-07-21T03:03:53;19.20;67.90
8945;DHT22;4507;40.232;29.132;2022-07-21T03:06:21;19.20;67.90
8945;DHT22;4507;40.232;29.132;2022-07-21T03:08:50;19.10;67.80
8945;DHT22;4507;40.232;29.132;2022-07-21T03:11:19;19.10;67.80
8945;DHT22;4507;40.232;29.132;2022-07-21T03:13:48;19.10;67.90
8945;DHT22;4507;40.232;29.132;2022-07-21T03:16:16;19.00;68.00
8945;DHT22;4507;40.232;29.132;2022-07-21T03:18:47;19.00;68.10
8945;DHT22;4507;40.232;29.132;2022-07-21T03:21:16;19.00;68.30
8945;DHT22;4507;40.232;29.132;2022-07-21T03:23:45;19.00;68.30
8945;DHT22;4507;40.232;29.132;2022-07-21T03:26:14;18.90;68.30
8945;DHT22;4507;40.232;29.132;2022-07-21T03:28:43;19.00;68.50
8945;DHT22;4507;40.232;29.132;2022-07-21T03:31:12;19.00;68.50
8945;DHT22;4507;40.232;29.132;2022-07-21T03:33:41;19.00;68.50
8945;DHT22;4507;40.232;29.132;2022-07-21T03:36:11;19.00;68.50
8945;DHT22;4507;40.232;29.132;2022-07-21T03:38:40;19.10;68.60
8945;DHT22;4507;40.232;29.132;2022-07-21T03:41:08;19.10;68.50
8945;DHT22;4507;40.232;29.132;2022-07-21T03:43:39;19.10;68.50
8945;DHT22;4507;40.232;29.132;2022-07-21T03:46:08;19.20;68.50
8945;DHT22;4507;40.232;29.132;2022-07-21T03:48:36;19.20;68.40
8945;DHT22;4507;40.232;29.132;2022-07-21T03:51:05;19.20;68.40
8945;DHT22;4507;40.232;29.132;2022-07-21T03:53:35;19.30;68.50
8945;DHT22;4507;40.232;29.132;2022-07-21T03:56:04;19.30;68.50
8945;DHT22;4507;40.232;29.132;2022-07-21T03:58:33;19.40;68.50
8945;DHT22;4507;40.232;29.132;2022-07-21T04:01:02;19.50;68.40
8945;DHT22;4507;40.232;29.132;2022-07-21T04:03:30;19.60;68.30
8945;DHT22;4507;40.232;29.132;2022-07-21T04:06:01;19.60;68.10
8945;DHT22;4507;40.232;29.132;2022-07-21T04:08:29;19.60;67.90
8945;DHT22;4507;40.232;29.132;2022-07-21T04:10:59;19.70;67.80
8945;DHT22;4507;40.232;29.132;2022-07-21T04:13:28;19.80;67.80
8945;DHT22;4507;40.232;29.132;2022-07-21T04:15:57;19.80;67.40
8945;DHT22;4507;40.232;29.132;2022-07-21T04:18:26;19.90;67.30
8945;DHT22;4507;40.232;29.132;2022-07-21T04:20:54;19.90;67.00
8945;DHT22;4507;40.232;29.132;2022-07-21T04:23:23;19.90;66.70
8945;DHT22;4507;40.232;29.132;2022-07-21T04:25:52;20.00;66.40
8945;DHT22;4507;40.232;29.132;2022-07-21T04:28:22;20.00;66.20
8945;DHT22;4507;40.232;29.132;2022-07-21T04:30:51;20.00;66.00
8945;DHT22;4507;40.232;29.132;2022-07-21T04:33:19;20.10;66.00
8945;DHT22;4507;40.232;29.132;2022-07-21T04:36:07;20.10;66.00
8945;DHT22;4507;40.232;29.132;2022-07-21T04:38:36;20.20;66.00
8945;DHT22;4507;40.232;29.132;2022-07-21T04:41:04;20.20;66.00
8945;DHT22;4507;40.232;29.132;2022-07-21T04:43:34;20.30;66.10
8945;DHT22;4507;40.232;29.132;2022-07-21T04:46:03;20.30;66.00
8945;DHT22;4507;40.232;29.132;2022-07-21T04:48:40;20.40;65.90
8945;DHT22;4507;40.232;29.132;2022-07-21T04:51:09;20.50;65.90
8945;DHT22;4507;40.232;29.132;2022-07-21T04:53:38;20.50;65.40
8945;DHT22;4507;40.232;29.132;2022-07-21T04:56:06;20.60;65.20
8945;DHT22;4507;40.232;29.132;2022-07-21T04:58:36;20.70;64.80
8945;DHT22;4507;40.232;29.132;2022-07-21T05:01:05;20.70;64.90
8945;DHT22;4507;40.232;29.132;2022-07-21T05:03:34;20.80;65.00
8945;DHT22;4507;40.232;29.132;2022-07-21T05:06:03;20.90;65.00
8945;DHT22;4507;40.232;29.132;2022-07-21T05:08:31;21.00;64.80
8945;DHT22;4507;40.232;29.132;2022-07-21T05:11:00;21.10;64.70
8945;DHT22;4507;40.232;29.132;2022-07-21T05:13:48;21.10;64.60
8945;DHT22;4507;40.232;29.132;2022-07-21T05:16:18;21.30;64.60
8945;DHT22;4507;40.232;29.132;2022-07-21T05:18:46;21.40;64.50
8945;DHT22;4507;40.232;29.132;2022-07-21T05:21:15;21.50;64.50
8945;DHT22;4507;40.232;29.132;2022-07-21T05:23:44;21.60;64.30
8945;DHT22;4507;40.232;29.132;2022-07-21T05:26:13;21.70;64.20
8945;DHT22;4507;40.232;29.132;2022-07-21T05:28:42;21.80;64.10
8945;DHT22;4507;40.232;29.132;2022-07-21T05:31:12;21.90;64.10
8945;DHT22;4507;40.232;29.132;2022-07-21T05:33:41;22.00;63.90
8945;DHT22;4507;40.232;29.132;2022-07-21T05:36:10;22.10;63.90
8945;DHT22;4507;40.232;29.132;2022-07-21T05:38:38;22.20;63.70
8945;DHT22;4507;40.232;29.132;2022-07-21T05:41:07;22.20;63.50
8945;DHT22;4507;40.232;29.132;2022-07-21T05:43:36;22.30;63.30
8945;DHT22;4507;40.232;29.132;2022-07-21T05:46:04;22.40;63.20
8945;DHT22;4507;40.232;29.132;2022-07-21T05:48:35;22.50;63.10
8945;DHT22;4507;40.232;29.132;2022-07-21T05:51:04;22.60;63.10
8945;DHT22;4507;40.232;29.132;2022-07-21T05:53:32;22.70;63.00
8945;DHT22;4507;40.232;29.132;2022-07-21T05:56:01;22.80;62.90
8945;DHT22;4507;40.232;29.132;2022-07-21T05:58:30;23.00;62.90
8945;DHT22;4507;40.232;29.132;2022-07-21T06:00:59;23.10;62.90
8945;DHT22;4507;40.232;29.132;2022-07-21T06:03:38;23.20;62.60
8945;DHT22;4507;40.232;29.132;2022-07-21T06:06:08;23.30;62.30
8945;DHT22;4507;40.232;29.132;2022-07-21T06:08:37;23.40;62.30
8945;DHT22;4507;40.232;29.132;2022-07-21T06:11:06;23.50;62.00
8945;DHT22;4507;40.232;29.132;2022-07-21T06:13:35;23.60;61.50
8945;DHT22;4507;40.232;29.132;2022-07-21T06:16:04;23.70;61.00
8945;DHT22;4507;40.232;29.132;2022-07-21T06:18:33;23.80;60.60
8945;DHT22;4507;40.232;29.132;2022-07-21T06:21:04;24.00;60.30
8945;DHT22;4507;40.232;29.132;2022-07-21T06:23:32;24.10;59.80
8945;DHT22;4507;40.232;29.132;2022-07-21T06:26:01;24.20;59.80
8945;DHT22;4507;40.232;29.132;2022-07-21T06:28:30;24.30;59.60
8945;DHT22;4507;40.232;29.132;2022-07-21T06:30:58;24.40;59.10
8945;DHT22;4507;40.232;29.132;2022-07-21T06:33:27;24.60;58.90
8945;DHT22;4507;40.232;29.132;2022-07-21T06:35:56;24.70;58.80
8945;DHT22;4507;40.232;29.132;2022-07-21T06:38:26;24.70;58.50
8945;DHT22;4507;40.232;29.132;2022-07-21T06:40:55;24.90;58.30
8945;DHT22;4507;40.232;29.132;2022-07-21T06:43:24;24.90;57.90
8945;DHT22;4507;40.232;29.132;2022-07-21T06:46:14;25.10;57.50
8945;DHT22;4507;40.232;29.132;2022-07-21T06:48:42;25.20;56.90
8945;DHT22;4507;40.232;29.132;2022-07-21T06:51:11;25.30;57.00
8945;DHT22;4507;40.232;29.132;2022-07-21T06:53:43;25.40;55.90
8945;DHT22;4507;40.232;29.132;2022-07-21T06:56:12;25.60;55.20
8945;DHT22;4507;40.232;29.132;2022-07-21T06:58:41;25.60;54.40
8945;DHT22;4507;40.232;29.132;2022-07-21T07:01:16;25.80;53.50
8945;DHT22;4507;40.232;29.132;2022-07-21T07:03:46;25.90;52.80
8945;DHT22;4507;40.232;29.132;2022-07-21T07:06:15;26.00;52.40
8945;DHT22;4507;40.232;29.132;2022-07-21T07:08:45;26.10;51.80
8945;DHT22;4507;40.232;29.132;2022-07-21T07:11:14;26.20;51.20
8945;DHT22;4507;40.232;29.132;2022-07-21T07:13:42;26.30;50.70
8945;DHT22;4507;40.232;29.132;2022-07-21T07:16:31;26.50;50.20
8945;DHT22;4507;40.232;29.132;2022-07-21T07:19:00;26.60;49.50
8945;DHT22;4507;40.232;29.132;2022-07-21T07:21:28;26.60;49.00
8945;DHT22;4507;40.232;29.132;2022-07-21T07:23:58;26.70;48.50
8945;DHT22;4507;40.232;29.132;2022-07-21T07:26:29;26.90;48.40
8945;DHT22;4507;40.232;29.132;2022-07-21T07:28:58;27.00;48.00
8945;DHT22;4507;40.232;29.132;2022-07-21T07:31:26;27.20;47.60
8945;DHT22;4507;40.232;29.132;2022-07-21T07:33:55;27.20;47.10
8945;DHT22;4507;40.232;29.132;2022-07-21T07:36:24;27.30;46.80
8945;DHT22;4507;40.232;29.132;2022-07-21T07:38:53;27.40;46.50
8945;DHT22;4507;40.232;29.132;2022-07-21T07:41:24;27.50;46.40
8945;DHT22;4507;40.232;29.132;2022-07-21T07:43:53;27.60;45.90
8945;DHT22;4507;40.232;29.132;2022-07-21T07:46:23;27.70;45.40
8945;DHT22;4507;40.232;29.132;2022-07-21T07:48:51;27.80;45.00
8945;DHT22;4507;40.232;29.132;2022-07-21T07:51:20;27.80;45.30
8945;DHT22;4507;40.232;29.132;2022-07-21T07:53:49;28.00;44.60
8945;DHT22;4507;40.232;29.132;2022-07-21T07:56:18;28.10;44.20
8945;DHT22;4507;40.232;29.132;2022-07-21T07:58:48;28.20;44.10
8945;DHT22;4507;40.232;29.132;2022-07-21T08:01:17;28.30;43.90
8945;DHT22;4507;40.232;29.132;2022-07-21T08:03:47;28.50;44.30
8945;DHT22;4507;40.232;29.132;2022-07-21T08:06:16;28.60;43.70
8945;DHT22;4507;40.232;29.132;2022-07-21T08:08:45;28.80;43.60
8945;DHT22;4507;40.232;29.132;2022-07-21T08:11:13;28.80;43.10
8945;DHT22;4507;40.232;29.132;2022-07-21T08:13:43;28.90;43.10
8945;DHT22;4507;40.232;29.132;2022-07-21T08:16:13;29.00;43.00
8945;DHT22;4507;40.232;29.132;2022-07-21T08:18:42;29.10;42.20
8945;DHT22;4507;40.232;29.132;2022-07-21T08:21:15;29.30;41.60
8945;DHT22;4507;40.232;29.132;2022-07-21T08:23:43;29.30;41.30
8945;DHT22;4507;40.232;29.132;2022-07-21T08:26:12;29.30;41.10
8945;DHT22;4507;40.232;29.132;2022-07-21T08:28:41;29.40;41.00
8945;DHT22;4507;40.232;29.132;2022-07-21T08:31:09;29.40;40.90
8945;DHT22;4507;40.232;29.132;2022-07-21T08:33:39;29.50;40.70
8945;DHT22;4507;40.232;29.132;2022-07-21T08:36:08;29.60;40.70
8945;DHT22;4507;40.232;29.132;2022-07-21T08:38:37;29.70;40.60
8945;DHT22;4507;40.232;29.132;2022-07-21T08:41:06;29.70;40.50
8945;DHT22;4507;40.232;29.132;2022-07-21T08:43:35;29.80;40.30
8945;DHT22;4507;40.232;29.132;2022-07-21T08:46:04;29.90;40.30
8945;DHT22;4507;40.232;29.132;2022-07-21T08:48:33;30.00;40.00
8945;DHT22;4507;40.232;29.132;2022-07-21T08:51:03;30.00;39.50
8945;DHT22;4507;40.232;29.132;2022-07-21T08:53:32;30.10;39.90
8945;DHT22;4507;40.232;29.132;2022-07-21T08:56:00;30.20;40.10
8945;DHT22;4507;40.232;29.132;2022-07-21T08:58:29;30.30;39.80
8945;DHT22;4507;40.232;29.132;2022-07-21T09:00:58;30.40;39.80
8945;DHT22;4507;40.232;29.132;2022-07-21T09:03:27;30.50;39.80
8945;DHT22;4507;40.232;29.132;2022-07-21T09:06:05;30.60;39.70
8945;DHT22;4507;40.232;29.132;2022-07-21T09:08:36;30.70;39.50
8945;DHT22;4507;40.232;29.132;2022-07-21T09:14:04;30.90;39.50
8945;DHT22;4507;40.232;29.132;2022-07-21T09:16:33;31.00;39.70
8945;DHT22;4507;40.232;29.132;2022-07-21T09:19:03;31.10;40.00
8945;DHT22;4507;40.232;29.132;2022-07-21T09:21:34;31.20;39.70
8945;DHT22;4507;40.232;29.132;2022-07-21T09:24:22;31.30;39.20
8945;DHT22;4507;40.232;29.132;2022-07-21T09:26:57;31.40;39.20
8945;DHT22;4507;40.232;29.132;2022-07-21T09:29:26;31.50;38.90
8945;DHT22;4507;40.232;29.132;2022-07-21T09:31:55;31.60;39.10
8945;DHT22;4507;40.232;29.132;2022-07-21T09:34:26;31.60;39.00
8945;DHT22;4507;40.232;29.132;2022-07-21T09:36:57;31.80;38.90
8945;DHT22;4507;40.232;29.132;2022-07-21T09:39:42;31.80;38.40
8945;DHT22;4507;40.232;29.132;2022-07-21T09:42:11;32.00;38.30
8945;DHT22;4507;40.232;29.132;2022-07-21T09:44:41;32.00;38.00
8945;DHT22;4507;40.232;29.132;2022-07-21T09:47:10;32.10;37.80
8945;DHT22;4507;40.232;29.132;2022-07-21T09:49:40;32.20;37.70
8945;DHT22;4507;40.232;29.132;2022-07-21T09:52:30;32.30;37.70
8945;DHT22;4507;40.232;29.132;2022-07-21T09:55:00;32.40;37.60
8945;DHT22;4507;40.232;29.132;2022-07-21T09:57:29;32.40;37.60
8945;DHT22;4507;40.232;29.132;2022-07-21T10:00:23;32.50;37.60
8945;DHT22;4507;40.232;29.132;2022-07-21T10:02:52;32.50;37.00
8945;DHT22;4507;40.232;29.132;2022-07-21T10:05:21;32.60;36.60
8945;DHT22;4507;40.232;29.132;2022-07-21T10:08:02;32.80;36.90
8945;DHT22;4507;40.232;29.132;2022-07-21T10:10:34;32.70;37.00
8945;DHT22;4507;40.232;29.132;2022-07-21T10:13:23;32.70;37.10
8945;DHT22;4507;40.232;29.132;2022-07-21T10:15:52;32.80;37.30
8945;DHT22;4507;40.232;29.132;2022-07-21T10:18:21;33.00;37.20
8945;DHT22;4507;40.232;29.132;2022-07-21T10:20:52;33.10;37.10
8945;DHT22;4507;40.232;29.132;2022-07-21T10:23:27;33.20;36.90
8945;DHT22;4507;40.232;29.132;2022-07-21T10:25:56;33.20;36.50
8945;DHT22;4507;40.232;29.132;2022-07-21T10:28:25;33.20;36.30
8945;DHT22;4507;40.232;29.132;2022-07-21T10:30:54;33.30;36.40
8945;DHT22;4507;40.232;29.132;2022-07-21T10:36:07;33.40;36.30
8945;DHT22;4507;40.232;29.132;2022-07-21T10:38:37;33.50;36.10
8945;DHT22;4507;40.232;29.132;2022-07-21T10:41:06;33.40;36.00
8945;DHT22;4507;40.232;29.132;2022-07-21T10:43:36;33.50;35.90
8945;DHT22;4507;40.232;29.132;2022-07-21T10:49:05;33.70;36.00
8945;DHT22;4507;40.232;29.132;2022-07-21T10:51:34;33.80;35.60
8945;DHT22;4507;40.232;29.132;2022-07-21T10:56:48;34.00;35.70
8945;DHT22;4507;40.232;29.132;2022-07-21T10:59:17;34.10;35.50
8945;DHT22;4507;40.232;29.132;2022-07-21T11:01:45;34.10;35.30
8945;DHT22;4507;40.232;29.132;2022-07-21T11:04:14;34.20;35.50
8945;DHT22;4507;40.232;29.132;2022-07-21T11:06:47;34.20;35.40
8945;DHT22;4507;40.232;29.132;2022-07-21T11:09:16;34.20;35.40
8945;DHT22;4507;40.232;29.132;2022-07-21T11:11:58;34.30;35.20
8945;DHT22;4507;40.232;29.132;2022-07-21T11:14:39;34.20;34.80
8945;DHT22;4507;40.232;29.132;2022-07-21T11:17:09;34.20;35.00
8945;DHT22;4507;40.232;29.132;2022-07-21T11:19:39;34.10;35.20
8945;DHT22;4507;40.232;29.132;2022-07-21T11:22:12;34.40;35.30
8945;DHT22;4507;40.232;29.132;2022-07-21T11:24:42;34.60;35.40
8945;DHT22;4507;40.232;29.132;2022-07-21T11:27:13;34.70;35.30
8945;DHT22;4507;40.232;29.132;2022-07-21T11:29:44;34.80;35.30
8945;DHT22;4507;40.232;29.132;2022-07-21T11:32:13;35.00;35.20
8945;DHT22;4507;40.232;29.132;2022-07-21T11:34:44;35.10;35.30
8945;DHT22;4507;40.232;29.132;2022-07-21T11:37:14;35.20;34.90
8945;DHT22;4507;40.232;29.132;2022-07-21T11:40:02;35.20;35.20
8945;DHT22;4507;40.232;29.132;2022-07-21T11:42:33;35.30;35.00
8945;DHT22;4507;40.232;29.132;2022-07-21T11:45:01;35.40;34.50
8945;DHT22;4507;40.232;29.132;2022-07-21T11:47:30;35.50;34.60
8945;DHT22;4507;40.232;29.132;2022-07-21T11:50:00;35.60;34.40
8945;DHT22;4507;40.232;29.132;2022-07-21T11:52:30;35.60;34.50
8945;DHT22;4507;40.232;29.132;2022-07-21T11:54:59;35.70;34.20
8945;DHT22;4507;40.232;29.132;2022-07-21T11:57:29;35.90;34.20
8945;DHT22;4507;40.232;29.132;2022-07-21T11:59:59;36.10;33.80
8945;DHT22;4507;40.232;29.132;2022-07-21T12:02:37;36.20;33.60
8945;DHT22;4507;40.232;29.132;2022-07-21T12:05:07;36.20;33.60
8945;DHT22;4507;40.232;29.132;2022-07-21T12:07:37;36.30;33.60
8945;DHT22;4507;40.232;29.132;2022-07-21T12:10:07;36.50;33.40
8945;DHT22;4507;40.232;29.132;2022-07-21T12:12:36;36.60;33.30
8945;DHT22;4507;40.232;29.132;2022-07-21T12:15:10;36.80;33.10
8945;DHT22;4507;40.232;29.132;2022-07-21T12:17:40;37.00;32.90
8945;DHT22;4507;40.232;29.132;2022-07-21T12:20:09;37.20;33.10
8945;DHT22;4507;40.232;29.132;2022-07-21T12:22:39;37.30;32.80
8945;DHT22;4507;40.232;29.132;2022-07-21T12:25:10;37.40;32.90
8945;DHT22;4507;40.232;29.132;2022-07-21T12:27:40;37.60;32.70
8945;DHT22;4507;40.232;29.132;2022-07-21T12:33:02;37.90;32.20
8945;DHT22;4507;40.232;29.132;2022-07-21T12:35:31;38.00;32.20
8945;DHT22;4507;40.232;29.132;2022-07-21T12:38:00;38.20;32.00
8945;DHT22;4507;40.232;29.132;2022-07-21T12:40:30;38.30;31.60
8945;DHT22;4507;40.232;29.132;2022-07-21T12:43:03;38.50;31.20
8945;DHT22;4507;40.232;29.132;2022-07-21T12:45:43;38.70;30.70
8945;DHT22;4507;40.232;29.132;2022-07-21T12:48:33;38.80;30.10
8945;DHT22;4507;40.232;29.132;2022-07-21T12:51:04;38.80;29.70
8945;DHT22;4507;40.232;29.132;2022-07-21T12:53:34;38.70;29.60
8945;DHT22;4507;40.232;29.132;2022-07-21T12:56:03;38.40;29.70
8945;DHT22;4507;40.232;29.132;2022-07-21T12:58:32;38.00;30.00
8945;DHT22;4507;40.232;29.132;2022-07-21T13:01:01;37.80;30.30
8945;DHT22;4507;40.232;29.132;2022-07-21T13:03:30;37.60;30.70
8945;DHT22;4507;40.232;29.132;2022-07-21T13:06:00;37.50;30.90
8945;DHT22;4507;40.232;29.132;2022-07-21T13:08:30;37.30;31.00
8945;DHT22;4507;40.232;29.132;2022-07-21T13:11:00;37.10;31.30
8945;DHT22;4507;40.232;29.132;2022-07-21T13:13:28;36.80;31.60
8945;DHT22;4507;40.232;29.132;2022-07-21T13:15:57;36.40;31.90
8945;DHT22;4507;40.232;29.132;2022-07-21T13:18:26;36.00;32.20
8945;DHT22;4507;40.232;29.132;2022-07-21T13:20:54;35.80;32.80
8945;DHT22;4507;40.232;29.132;2022-07-21T13:23:25;35.70;33.30
8945;DHT22;4507;40.232;29.132;2022-07-21T13:25:53;35.30;33.60
8945;DHT22;4507;40.232;29.132;2022-07-21T13:28:31;35.10;33.80
8945;DHT22;4507;40.232;29.132;2022-07-21T13:31:04;34.90;34.20
8945;DHT22;4507;40.232;29.132;2022-07-21T13:33:34;34.70;34.10
8945;DHT22;4507;40.232;29.132;2022-07-21T13:36:04;34.60;34.70
8945;DHT22;4507;40.232;29.132;2022-07-21T13:38:34;34.50;34.90
8945;DHT22;4507;40.232;29.132;2022-07-21T13:41:03;34.50;35.40
8945;DHT22;4507;40.232;29.132;2022-07-21T13:43:52;34.40;35.90
8945;DHT22;4507;40.232;29.132;2022-07-21T13:46:21;34.30;36.20
8945;DHT22;4507;40.232;29.132;2022-07-21T13:48:50;34.30;36.60
8945;DHT22;4507;40.232;29.132;2022-07-21T13:51:19;34.40;36.50
8945;DHT22;4507;40.232;29.132;2022-07-21T13:53:50;34.40;36.50
8945;DHT22;4507;40.232;29.132;2022-07-21T13:56:20;34.40;36.30
8945;DHT22;4507;40.232;29.132;2022-07-21T13:58:49;34.40;36.20
8945;DHT22;4507;40.232;29.132;2022-07-21T14:01:18;34.30;36.40
8945;DHT22;4507;40.232;29.132;2022-07-21T14:03:47;34.10;36.50
8945;DHT22;4507;40.232;29.132;2022-07-21T14:06:16;34.00;36.80
8945;DHT22;4507;40.232;29.132;2022-07-21T14:08:45;33.80;37.10
8945;DHT22;4507;40.232;29.132;2022-07-21T14:11:15;33.70;37.40
8945;DHT22;4507;40.232;29.132;2022-07-21T14:13:44;33.60;37.50
8945;DHT22;4507;40.232;29.132;2022-07-21T14:16:12;33.50;37.70
8945;DHT22;4507;40.232;29.132;2022-07-21T14:18:41;33.30;37.80
8945;DHT22;4507;40.232;29.132;2022-07-21T14:21:10;33.40;38.20
8945;DHT22;4507;40.232;29.132;2022-07-21T14:23:39;33.20;38.40
8945;DHT22;4507;40.232;29.132;2022-07-21T14:26:08;33.10;38.40
8945;DHT22;4507;40.232;29.132;2022-07-21T14:28:38;33.10;38.80
8945;DHT22;4507;40.232;29.132;2022-07-21T14:31:06;33.00;38.70
8945;DHT22;4507;40.232;29.132;2022-07-21T14:33:35;32.90;38.90
8945;DHT22;4507;40.232;29.132;2022-07-21T14:36:04;32.90;39.10
8945;DHT22;4507;40.232;29.132;2022-07-21T14:38:33;32.80;39.00
8945;DHT22;4507;40.232;29.132;2022-07-21T14:41:02;32.70;39.10
8945;DHT22;4507;40.232;29.132;2022-07-21T14:43:30;32.70;39.50
8945;DHT22;4507;40.232;29.132;2022-07-21T14:46:19;32.70;39.70
8945;DHT22;4507;40.232;29.132;2022-07-21T14:48:48;32.70;39.80
8945;DHT22;4507;40.232;29.132;2022-07-21T14:51:17;32.60;40.10
8945;DHT22;4507;40.232;29.132;2022-07-21T14:53:45;32.60;40.20
8945;DHT22;4507;40.232;29.132;2022-07-21T14:56:14;32.50;40.50
8945;DHT22;4507;40.232;29.132;2022-07-21T14:58:43;32.40;40.80
8945;DHT22;4507;40.232;29.132;2022-07-21T15:01:11;32.40;41.10
8945;DHT22;4507;40.232;29.132;2022-07-21T15:03:41;32.40;40.90
8945;DHT22;4507;40.232;29.132;2022-07-21T15:06:10;32.30;41.00
8945;DHT22;4507;40.232;29.132;2022-07-21T15:08:39;32.20;41.20
8945;DHT22;4507;40.232;29.132;2022-07-21T15:11:08;32.10;41.80
8945;DHT22;4507;40.232;29.132;2022-07-21T15:13:37;32.10;42.10
8945;DHT22;4507;40.232;29.132;2022-07-21T15:16:06;32.00;42.30
8945;DHT22;4507;40.232;29.132;2022-07-21T15:18:35;32.10;42.70
8945;DHT22;4507;40.232;29.132;2022-07-21T15:21:07;31.90;42.30
8945;DHT22;4507;40.232;29.132;2022-07-21T15:23:35;31.90;42.30
8945;DHT22;4507;40.232;29.132;2022-07-21T15:26:04;31.80;42.20
8945;DHT22;4507;40.232;29.132;2022-07-21T15:28:33;31.70;42.30
8945;DHT22;4507;40.232;29.132;2022-07-21T15:31:02;31.70;42.40
8945;DHT22;4507;40.232;29.132;2022-07-21T15:33:32;31.70;42.70
8945;DHT22;4507;40.232;29.132;2022-07-21T15:36:03;31.60;42.80
8945;DHT22;4507;40.232;29.132;2022-07-21T15:38:42;31.60;43.20
8945;DHT22;4507;40.232;29.132;2022-07-21T15:41:10;31.60;43.30
8945;DHT22;4507;40.232;29.132;2022-07-21T15:44:18;31.50;43.10
8945;DHT22;4507;40.232;29.132;2022-07-21T15:46:47;31.40;43.20
8945;DHT22;4507;40.232;29.132;2022-07-21T15:49:15;31.40;43.30
8945;DHT22;4507;40.232;29.132;2022-07-21T15:51:46;31.40;43.50
8945;DHT22;4507;40.232;29.132;2022-07-21T15:54:16;31.30;43.50
8945;DHT22;4507;40.232;29.132;2022-07-21T15:57:05;31.20;43.10
8945;DHT22;4507;40.232;29.132;2022-07-21T15:59:35;31.20;43.10
8945;DHT22;4507;40.232;29.132;2022-07-21T16:02:07;31.10;43.30
8945;DHT22;4507;40.232;29.132;2022-07-21T16:04:36;31.00;43.50
8945;DHT22;4507;40.232;29.132;2022-07-21T16:07:05;31.00;43.70
8945;DHT22;4507;40.232;29.132;2022-07-21T16:09:36;30.90;43.70
8945;DHT22;4507;40.232;29.132;2022-07-21T16:12:07;30.80;43.80
8945;DHT22;4507;40.232;29.132;2022-07-21T16:14:36;30.80;43.80
8945;DHT22;4507;40.232;29.132;2022-07-21T16:17:04;30.70;44.00
8945;DHT22;4507;40.232;29.132;2022-07-21T16:19:33;30.60;44.30